Time;durP1;ratioP1;P1;durP2;ratioP2;P2;SDS_P1;SDS_P2;PMS_P1;PMS_P2;Temp;Humidity;BMP_temperature;BMP_pressure;BME280_temperature;BME280_humidity;BME280_pressure;Samples;Min_cycle;Max_cycle;Signal;HPM_P1;HPM_P2
2021/05/09 00:00:38;;;;;;;15.80;6.07;;;16.20;99.90;;;;;;4966750;28;20050;-68
2021/05/09 00:03:04;;;;;;;17.60;5.82;;;16.50;99.90;;;;;;4970408;28;20034;-69
2021/05/09 00:05:30;;;;;;;19.02;5.70;;;16.50;99.90;;;;;;4965745;28;20150;-68
2021/05/09 00:07:55;;;;;;;17.38;5.20;;;16.50;99.90;;;;;;4966889;28;20027;-69
2021/05/09 00:10:21;;;;;;;16.23;5.25;;;16.40;99.90;;;;;;4966882;28;20167;-69
2021/05/09 00:12:48;;;;;;;14.93;5.35;;;16.40;99.90;;;;;;4970213;28;20454;-69
2021/05/09 00:15:16;;;;;;;16.88;6.45;;;16.40;99.90;;;;;;4964404;28;20044;-69
2021/05/09 00:17:42;;;;;;;18.70;6.30;;;16.40;99.90;;;;;;4960733;28;20472;-69
2021/05/09 00:20:09;;;;;;;15.77;5.57;;;16.50;99.90;;;;;;4964603;28;20062;-69
2021/05/09 00:22:35;;;;;;;18.58;6.07;;;16.50;99.90;;;;;;4969528;28;20491;-68
2021/05/09 00:25:02;;;;;;;12.50;5.90;;;16.30;99.90;;;;;;4965092;28;20019;-69
2021/05/09 00:27:28;;;;;;;18.60;7.07;;;16.40;99.90;;;;;;4969667;28;20097;-68
2021/05/09 00:29:53;;;;;;;17.75;5.82;;;16.30;99.90;;;;;;4964434;28;20043;-69
2021/05/09 00:32:19;;;;;;;13.88;5.22;;;16.40;99.90;;;;;;4970039;28;20053;-69
2021/05/09 00:34:45;;;;;;;16.75;6.07;;;16.30;99.90;;;;;;4968730;28;20034;-69
2021/05/09 00:37:10;;;;;;;15.15;6.55;;;16.30;99.90;;;;;;4967076;28;20088;-69
2021/05/09 00:39:36;;;;;;;14.93;6.13;;;16.30;99.90;;;;;;4972013;28;20077;-69
2021/05/09 00:42:03;;;;;;;19.92;6.25;;;16.20;99.90;;;;;;4965128;28;20026;-69
2021/05/09 00:44:29;;;;;;;17.63;5.72;;;16.10;99.90;;;;;;4970743;28;20023;-69
2021/05/09 00:46:55;;;;;;;12.23;5.80;;;16.20;99.90;;;;;;4974024;28;20025;-69
2021/05/09 00:49:21;;;;;;;18.60;6.78;;;16.20;99.90;;;;;;4969902;28;20026;-69
2021/05/09 00:51:51;;;;;;;23.60;6.63;;;16.10;99.90;;;;;;4965520;28;20026;-68
2021/05/09 00:54:19;;;;;;;14.23;6.10;;;16.30;99.90;;;;;;4971802;28;20511;-68
2021/05/09 00:56:46;;;;;;;14.68;5.43;;;16.30;99.90;;;;;;4966066;28;20118;-69
2021/05/09 00:59:13;;;;;;;24.15;6.40;;;16.30;99.90;;;;;;4970781;28;20391;-69
2021/05/09 01:01:42;;;;;;;15.00;5.75;;;16.20;99.90;;;;;;4965224;28;20023;-68
2021/05/09 01:04:12;;;;;;;15.20;5.93;;;16.30;99.90;;;;;;4971894;28;20019;-68
2021/05/09 01:06:38;;;;;;;18.40;5.95;;;16.20;99.90;;;;;;4964288;28;20065;-68
2021/05/09 01:09:04;;;;;;;15.77;5.28;;;16.30;99.90;;;;;;4972134;28;20019;-68
2021/05/09 01:11:30;;;;;;;15.95;6.22;;;16.10;99.90;;;;;;4971100;28;20527;-69
2021/05/09 01:13:56;;;;;;;22.83;6.57;;;16.20;99.90;;;;;;4971901;28;20035;-68
2021/05/09 01:16:21;;;;;;;23.15;6.65;;;16.30;99.90;;;;;;4969677;28;20037;-69
2021/05/09 01:18:47;;;;;;;19.58;6.28;;;16.20;99.90;;;;;;4972007;28;20045;-68
2021/05/09 01:21:13;;;;;;;17.17;5.78;;;16.20;99.90;;;;;;4965674;28;20028;-68
2021/05/09 01:23:38;;;;;;;14.35;5.70;;;16.20;99.90;;;;;;4972875;28;20037;-69
2021/05/09 01:26:04;;;;;;;13.63;5.57;;;16.20;99.90;;;;;;4965614;28;20102;-68
2021/05/09 01:28:30;;;;;;;16.80;6.70;;;16.10;99.90;;;;;;4971997;28;20026;-69
2021/05/09 01:30:55;;;;;;;16.23;5.93;;;16.20;99.90;;;;;;4967012;28;20035;-68
2021/05/09 01:33:21;;;;;;;22.75;6.97;;;16.20;99.90;;;;;;4973193;28;20039;-68
2021/05/09 01:35:48;;;;;;;15.50;6.25;;;16.20;99.90;;;;;;4966410;28;20428;-68
2021/05/09 01:38:13;;;;;;;16.67;5.88;;;16.10;99.90;;;;;;4971211;28;20031;-68
2021/05/09 01:40:39;;;;;;;16.88;6.68;;;16.10;99.90;;;;;;4964324;28;20042;-68
2021/05/09 01:43:05;;;;;;;17.17;5.55;;;16.20;99.90;;;;;;4972649;28;20019;-69
2021/05/09 01:45:31;;;;;;;16.15;6.60;;;16.00;99.90;;;;;;4964133;28;20031;-68
2021/05/09 01:47:56;;;;;;;19.00;5.95;;;16.00;99.90;;;;;;4972161;28;20374;-69
2021/05/09 01:50:22;;;;;;;16.45;6.07;;;16.10;99.90;;;;;;4966522;28;20031;-69
2021/05/09 01:52:48;;;;;;;14.18;5.75;;;16.10;99.90;;;;;;4967045;28;20022;-69
2021/05/09 01:55:20;;;;;;;17.58;6.00;;;16.00;99.90;;;;;;4966501;28;20023;-69
2021/05/09 01:57:46;;;;;;;18.85;6.10;;;16.10;99.90;;;;;;4972262;28;20567;-69
2021/05/09 02:00:17;;;;;;;17.00;5.32;;;16.10;99.90;;;;;;4966170;28;20069;-69
2021/05/09 02:02:43;;;;;;;15.88;5.78;;;16.10;99.90;;;;;;4972557;28;20023;-69
2021/05/09 02:05:10;;;;;;;15.18;5.90;;;16.10;99.90;;;;;;4966173;28;20094;-68
2021/05/09 02:07:36;;;;;;;17.30;5.85;;;16.00;99.90;;;;;;4971927;28;20031;-68
2021/05/09 02:10:04;;;;;;;21.60;7.18;;;15.90;99.90;;;;;;4969800;28;20038;-69
2021/05/09 02:12:30;;;;;;;16.23;5.78;;;16.00;99.90;;;;;;4972300;28;20038;-69
2021/05/09 02:14:55;;;;;;;18.77;6.15;;;16.00;99.90;;;;;;4966836;28;20748;-68
2021/05/09 02:17:21;;;;;;;15.27;5.90;;;16.00;99.90;;;;;;4967744;28;20030;-69
2021/05/09 02:19:48;;;;;;;15.43;6.95;;;15.90;99.90;;;;;;4966755;28;20113;-69
2021/05/09 02:22:14;;;;;;;16.00;5.90;;;15.90;99.90;;;;;;4969810;28;20023;-68
2021/05/09 02:24:41;;;;;;;16.75;6.13;;;15.90;99.90;;;;;;4970203;28;20045;-69
2021/05/09 02:27:07;;;;;;;13.60;6.07;;;16.00;99.90;;;;;;4964676;28;20110;-69
2021/05/09 02:29:33;;;;;;;18.30;6.50;;;16.00;99.90;;;;;;4969993;28;20179;-70
2021/05/09 02:31:58;;;;;;;13.40;6.43;;;15.90;99.90;;;;;;4963449;28;20476;-68
2021/05/09 02:34:25;;;;;;;20.98;6.00;;;15.90;99.90;;;;;;4969796;28;20117;-68
2021/05/09 02:36:50;;;;;;;20.05;6.78;;;16.00;99.90;;;;;;4970740;28;20027;-69
2021/05/09 02:39:16;;;;;;;18.10;6.40;;;15.80;99.90;;;;;;4969050;28;20034;-68
2021/05/09 02:41:43;;;;;;;19.30;5.85;;;15.90;99.90;;;;;;4970243;28;20019;-69
2021/05/09 02:44:09;;;;;;;23.42;6.35;;;15.90;99.90;;;;;;4969650;28;20110;-68
2021/05/09 02:46:34;;;;;;;21.95;6.28;;;15.90;99.90;;;;;;4966428;28;20023;-68
2021/05/09 02:49:00;;;;;;;16.02;6.40;;;15.80;99.90;;;;;;4970201;28;20052;-70
2021/05/09 02:51:26;;;;;;;18.70;5.72;;;15.90;99.90;;;;;;4963749;28;20023;-68
2021/05/09 02:53:52;;;;;;;13.25;5.50;;;15.90;99.90;;;;;;4969820;28;20034;-68
2021/05/09 02:56:18;;;;;;;19.60;6.05;;;15.80;99.90;;;;;;4971146;28;20468;-68
2021/05/09 02:58:43;;;;;;;16.48;5.70;;;15.90;99.90;;;;;;4970684;28;20077;-67
2021/05/09 03:01:09;;;;;;;14.32;6.38;;;15.90;99.90;;;;;;4963982;28;20055;-68
2021/05/09 03:03:35;;;;;;;16.35;5.97;;;15.80;99.90;;;;;;4964667;28;20031;-68
2021/05/09 03:06:00;;;;;;;13.55;4.97;;;15.90;99.90;;;;;;4966048;28;20077;-68
2021/05/09 03:08:26;;;;;;;20.67;5.65;;;15.80;99.90;;;;;;4971671;28;20088;-68
2021/05/09 03:10:52;;;;;;;15.65;6.15;;;15.80;99.90;;;;;;4965358;28;20066;-69
2021/05/09 03:13:18;;;;;;;18.30;6.28;;;15.80;99.90;;;;;;4966811;28;20023;-68
2021/05/09 03:15:43;;;;;;;16.48;5.82;;;15.90;99.90;;;;;;4964420;28;20517;-68
2021/05/09 03:18:09;;;;;;;16.08;5.78;;;15.80;99.90;;;;;;4967734;28;20035;-68
2021/05/09 03:20:36;;;;;;;23.13;6.85;;;15.80;99.90;;;;;;4965092;28;20035;-68
2021/05/09 03:23:05;;;;;;;16.23;5.88;;;15.80;99.90;;;;;;4966728;28;20038;-68
2021/05/09 03:25:31;;;;;;;18.88;6.63;;;15.80;99.90;;;;;;4966384;28;20100;-68
2021/05/09 03:27:58;;;;;;;19.58;5.88;;;15.80;99.90;;;;;;4966235;28;20031;-68
2021/05/09 03:30:23;;;;;;;15.50;6.00;;;15.70;99.90;;;;;;4967270;28;20023;-68
2021/05/09 03:32:49;;;;;;;15.75;6.10;;;15.70;99.90;;;;;;4967778;28;20026;-68
2021/05/09 03:35:15;;;;;;;17.63;5.78;;;15.70;99.90;;;;;;4965097;28;20074;-68
2021/05/09 03:37:40;;;;;;;14.38;6.05;;;15.70;99.90;;;;;;4967108;28;20049;-68
2021/05/09 03:40:08;;;;;;;21.00;6.30;;;15.60;99.90;;;;;;4959451;28;20035;-69
2021/05/09 03:42:34;;;;;;;20.65;5.75;;;15.70;99.90;;;;;;4966299;28;20034;-68
2021/05/09 03:45:00;;;;;;;17.05;6.10;;;15.70;99.90;;;;;;4964279;28;20954;-68
2021/05/09 03:47:26;;;;;;;18.85;5.90;;;15.60;99.90;;;;;;4970501;28;20026;-68
2021/05/09 03:49:53;;;;;;;19.67;6.47;;;15.60;99.90;;;;;;4964499;28;20020;-68
2021/05/09 03:52:19;;;;;;;14.23;5.78;;;15.70;99.90;;;;;;4970601;28;20026;-68
2021/05/09 03:54:45;;;;;;;17.88;5.65;;;15.70;99.90;;;;;;4964402;28;20026;-69
2021/05/09 03:57:10;;;;;;;16.67;5.88;;;15.70;99.90;;;;;;4967479;28;20400;-68
2021/05/09 03:59:36;;;;;;;19.17;5.95;;;15.60;99.90;;;;;;4965968;28;20043;-68
2021/05/09 04:02:01;;;;;;;14.82;5.53;;;15.60;99.90;;;;;;4966044;28;20032;-68
2021/05/09 04:04:27;;;;;;;19.60;5.53;;;15.70;99.90;;;;;;4964977;28;20035;-69
2021/05/09 04:06:53;;;;;;;19.25;5.72;;;15.60;99.90;;;;;;4968079;28;20050;-69
2021/05/09 04:09:18;;;;;;;20.23;5.95;;;15.60;99.90;;;;;;4967034;28;20233;-68
2021/05/09 04:11:44;;;;;;;18.88;5.88;;;15.60;99.90;;;;;;4963372;28;20058;-68
2021/05/09 04:14:10;;;;;;;19.58;5.47;;;15.60;99.90;;;;;;4966258;28;20027;-68
2021/05/09 04:16:36;;;;;;;20.67;6.03;;;15.60;99.90;;;;;;4967286;28;20455;-68
2021/05/09 04:19:02;;;;;;;20.77;5.78;;;15.50;99.90;;;;;;4964072;28;20031;-68
2021/05/09 04:21:27;;;;;;;16.48;5.78;;;15.50;99.90;;;;;;4969108;28;20067;-68
2021/05/09 04:23:53;;;;;;;14.88;5.28;;;15.60;99.90;;;;;;4966102;28;20025;-69
2021/05/09 04:26:19;;;;;;;14.65;5.35;;;15.60;99.90;;;;;;4970663;28;20030;-69
2021/05/09 04:28:44;;;;;;;15.70;5.60;;;15.60;99.90;;;;;;4964238;28;20554;-68
2021/05/09 04:31:10;;;;;;;22.77;6.13;;;15.60;99.90;;;;;;4963855;28;20034;-68
2021/05/09 04:33:36;;;;;;;14.45;5.43;;;15.60;99.90;;;;;;4972818;28;20015;-69
2021/05/09 04:36:02;;;;;;;18.33;5.47;;;15.70;99.90;;;;;;4964773;28;20464;-69
2021/05/09 04:38:27;;;;;;;15.88;5.65;;;15.60;99.90;;;;;;4955028;28;20599;-69
2021/05/09 04:40:53;;;;;;;18.85;5.43;;;15.60;99.90;;;;;;4965659;28;20035;-68
2021/05/09 04:43:21;;;;;;;18.70;5.97;;;15.50;99.90;;;;;;4954926;29;20094;-69
2021/05/09 04:45:48;;;;;;;17.75;5.00;;;15.50;99.90;;;;;;4965281;28;20042;-69
2021/05/09 04:48:14;;;;;;;17.85;5.47;;;15.60;99.90;;;;;;4955030;28;20054;-69
2021/05/09 04:50:39;;;;;;;16.85;5.60;;;15.60;99.90;;;;;;4959698;28;20389;-69
2021/05/09 04:53:27;;;;;;;13.63;4.78;;;15.50;99.90;;;;;;4973525;28;20035;-69
2021/05/09 04:55:54;;;;;;;18.27;5.40;;;15.60;99.90;;;;;;4965009;28;20148;-69
2021/05/09 04:58:20;;;;;;;12.50;5.30;;;15.50;99.90;;;;;;4954782;28;20484;-69
2021/05/09 05:00:45;;;;;;;19.52;6.18;;;15.50;99.90;;;;;;4965350;28;20041;-69
2021/05/09 05:03:11;;;;;;;18.77;5.20;;;15.50;99.90;;;;;;4954660;28;20039;-69
2021/05/09 05:05:38;;;;;;;18.55;5.55;;;15.50;99.90;;;;;;4963872;28;20353;-69
2021/05/09 05:08:04;;;;;;;15.80;5.40;;;15.60;99.90;;;;;;4972999;28;20617;-69
2021/05/09 05:10:29;;;;;;;16.77;4.90;;;15.60;99.90;;;;;;4967008;28;20039;-69
2021/05/09 05:12:55;;;;;;;16.88;5.00;;;15.60;99.90;;;;;;4966275;28;20558;-69
2021/05/09 05:15:21;;;;;;;13.02;5.28;;;15.70;99.90;;;;;;4964140;28;20058;-69
2021/05/09 05:17:46;;;;;;;21.08;5.40;;;15.70;99.90;;;;;;4957332;28;20039;-69
2021/05/09 05:20:13;;;;;;;13.88;5.13;;;15.70;99.90;;;;;;4960406;28;20073;-69
2021/05/09 05:22:39;;;;;;;15.45;5.15;;;15.70;99.90;;;;;;4962285;28;20102;-69
2021/05/09 05:25:05;;;;;;;19.45;5.55;;;15.70;99.90;;;;;;4965333;28;20110;-70
2021/05/09 05:27:31;;;;;;;17.67;5.50;;;15.70;99.90;;;;;;4968819;28;20045;-69
2021/05/09 05:29:57;;;;;;;15.02;4.57;;;15.70;99.90;;;;;;4967108;28;20551;-68
2021/05/09 05:32:22;;;;;;;17.83;5.22;;;15.70;99.90;;;;;;4960267;28;20038;-70
2021/05/09 05:34:48;;;;;;;15.85;5.10;;;15.70;99.90;;;;;;4957000;28;20400;-69
2021/05/09 05:37:14;;;;;;;12.55;4.95;;;15.80;99.90;;;;;;4960932;28;20070;-69
2021/05/09 05:39:39;;;;;;;9.82;4.47;;;15.80;99.90;;;;;;4955884;28;20039;-73
2021/05/09 05:42:05;;;;;;;13.73;4.32;;;15.70;99.90;;;;;;4962239;28;20118;-72
2021/05/09 05:44:31;;;;;;;13.38;4.75;;;15.90;99.90;;;;;;4956147;28;20027;-73
2021/05/09 05:46:56;;;;;;;11.13;4.10;;;15.90;99.90;;;;;;4962261;28;20019;-72
2021/05/09 05:49:22;;;;;;;15.25;5.13;;;16.00;99.90;;;;;;4956435;28;20088;-72
2021/05/09 05:51:47;;;;;;;13.48;4.25;;;16.00;99.90;;;;;;4963569;28;20027;-73
2021/05/09 05:54:13;;;;;;;12.82;4.40;;;16.00;99.90;;;;;;4964036;28;20062;-72
2021/05/09 05:56:39;;;;;;;10.55;4.60;;;16.00;99.90;;;;;;4965185;28;20019;-73
2021/05/09 05:59:04;;;;;;;16.63;4.82;;;16.00;99.90;;;;;;4954305;28;20038;-73
2021/05/09 06:01:30;;;;;;;16.50;4.30;;;15.90;99.90;;;;;;4964919;28;20015;-73
2021/05/09 06:03:56;;;;;;;9.40;4.40;;;16.00;99.90;;;;;;4962038;28;20121;-73
2021/05/09 06:06:21;;;;;;;20.40;4.50;;;16.10;99.90;;;;;;4967471;28;20027;-73
2021/05/09 06:08:50;;;;;;;14.63;4.40;;;16.10;99.90;;;;;;4961976;28;20039;-73
2021/05/09 06:11:16;;;;;;;15.55;4.75;;;16.10;99.90;;;;;;4968091;28;20051;-74
2021/05/09 06:13:42;;;;;;;14.85;4.32;;;16.10;99.90;;;;;;4969448;28;20059;-74
2021/05/09 06:16:07;;;;;;;14.13;3.75;;;16.10;99.90;;;;;;4961240;28;20038;-74
2021/05/09 06:18:33;;;;;;;13.25;4.13;;;16.20;99.90;;;;;;4972972;28;20039;-70
2021/05/09 06:20:59;;;;;;;12.93;3.85;;;16.20;99.90;;;;;;4964515;28;20117;-71
2021/05/09 06:23:27;;;;;;;20.73;4.70;;;16.30;99.90;;;;;;4953608;28;20079;-72
2021/05/09 06:25:52;;;;;;;16.33;4.05;;;16.40;99.90;;;;;;4964041;28;20113;-72
2021/05/09 06:28:18;;;;;;;8.15;3.30;;;16.40;99.90;;;;;;4953017;28;20106;-72
2021/05/09 06:30:46;;;;;;;11.85;3.67;;;16.40;99.90;;;;;;4963471;28;20034;-72
2021/05/09 06:33:12;;;;;;;9.73;3.50;;;16.40;99.90;;;;;;4958093;28;20016;-72
2021/05/09 06:35:39;;;;;;;8.57;3.85;;;16.50;99.90;;;;;;4961559;28;20027;-71
2021/05/09 06:38:07;;;;;;;9.82;3.70;;;16.70;99.90;;;;;;4966176;28;20043;-71
2021/05/09 06:40:36;;;;;;;8.75;3.05;;;16.90;99.90;;;;;;4965907;28;20031;-71
2021/05/09 06:43:03;;;;;;;7.85;3.67;;;16.80;99.90;;;;;;4954510;28;20020;-69
2021/05/09 06:45:31;;;;;;;15.70;3.60;;;16.90;99.90;;;;;;4964819;28;20645;-68
2021/05/09 06:47:58;;;;;;;13.43;4.00;;;17.00;99.90;;;;;;4953746;28;20023;-69
2021/05/09 06:50:26;;;;;;;12.27;3.45;;;16.90;99.90;;;;;;4967102;28;20041;-69
2021/05/09 06:52:52;;;;;;;9.93;3.75;;;17.00;99.90;;;;;;4957317;28;20515;-68
2021/05/09 06:55:19;;;;;;;11.50;3.50;;;17.00;99.90;;;;;;4959542;28;20054;-68
2021/05/09 06:57:47;;;;;;;11.73;3.20;;;17.10;99.90;;;;;;4956090;28;20616;-67
2021/05/09 07:00:14;;;;;;;12.38;4.03;;;17.10;99.90;;;;;;4958696;28;20061;-69
2021/05/09 07:02:41;;;;;;;11.55;3.80;;;17.10;99.90;;;;;;4956319;28;20544;-66
2021/05/09 07:05:07;;;;;;;11.13;2.90;;;17.30;99.90;;;;;;4957623;28;20496;-67
2021/05/09 07:07:54;;;;;;;11.80;3.35;;;17.30;99.90;;;;;;4958575;28;20622;-71
2021/05/09 07:10:23;;;;;;;14.07;3.70;;;17.30;99.90;;;;;;4958961;28;20062;-70
2021/05/09 07:12:49;;;;;;;11.18;3.53;;;17.30;99.90;;;;;;4955239;28;20061;-69
2021/05/09 07:15:24;;;;;;;13.68;3.40;;;17.30;99.90;;;;;;4958377;28;20015;-68
2021/05/09 07:18:08;;;;;;;12.85;3.65;;;17.20;99.90;;;;;;4955160;28;20552;-68
2021/05/09 07:20:36;;;;;;;9.38;3.70;;;17.30;99.90;;;;;;4960115;28;20373;-69
2021/05/09 07:23:02;;;;;;;11.15;3.33;;;17.20;99.90;;;;;;4953494;28;20034;-69
2021/05/09 07:25:27;;;;;;;9.98;3.20;;;17.20;99.90;;;;;;4959686;28;20027;-69
2021/05/09 07:27:53;;;;;;;15.35;3.58;;;17.20;99.90;;;;;;4966701;28;20031;-69
2021/05/09 07:30:20;;;;;;;9.88;2.95;;;17.20;99.90;;;;;;4958614;28;20054;-69
2021/05/09 07:32:46;;;;;;;16.60;3.55;;;17.20;99.90;;;;;;4955220;28;20049;-69
2021/05/09 07:35:12;;;;;;;9.40;3.03;;;17.30;99.90;;;;;;4961108;28;20582;-69
2021/05/09 07:37:37;;;;;;;12.88;3.40;;;17.30;99.90;;;;;;4961083;28;20034;-68
2021/05/09 07:40:03;;;;;;;11.05;3.03;;;17.30;99.90;;;;;;4962875;28;20027;-68
2021/05/09 07:42:29;;;;;;;14.07;3.40;;;17.30;99.90;;;;;;4957629;28;20477;-68
2021/05/09 07:44:59;;;;;;;11.98;3.83;;;17.30;99.90;;;;;;4954945;28;20030;-69
2021/05/09 07:47:25;;;;;;;7.80;3.15;;;17.40;99.90;;;;;;4958230;28;20031;-69
2021/05/09 07:49:51;;;;;;;10.50;3.28;;;17.40;99.90;;;;;;4955115;28;20614;-68
2021/05/09 07:52:17;;;;;;;11.05;3.28;;;17.40;99.90;;;;;;4958741;28;20027;-68
2021/05/09 07:54:42;;;;;;;17.38;3.30;;;17.40;99.90;;;;;;4952523;28;20027;-68
2021/05/09 07:57:08;;;;;;;10.63;3.47;;;17.30;99.90;;;;;;4959633;28;20031;-68
2021/05/09 07:59:34;;;;;;;7.95;3.10;;;17.50;99.90;;;;;;4953876;28;20155;-68
2021/05/09 08:02:01;;;;;;;12.73;3.50;;;17.50;99.90;;;;;;4959882;28;20023;-68
2021/05/09 08:04:26;;;;;;;13.27;3.50;;;17.40;99.90;;;;;;4953999;28;20035;-59
2021/05/09 08:06:52;;;;;;;16.10;3.38;;;17.50;99.90;;;;;;4959186;28;20038;-59
2021/05/09 08:09:18;;;;;;;10.02;3.20;;;17.70;99.90;;;;;;4953685;28;20446;-69
2021/05/09 08:11:44;;;;;;;9.38;2.78;;;17.70;99.90;;;;;;4960948;28;20172;-68
2021/05/09 08:14:10;;;;;;;9.63;3.33;;;17.60;99.90;;;;;;4961136;28;20106;-68
2021/05/09 08:16:36;;;;;;;12.60;3.33;;;17.60;99.90;;;;;;4965781;28;20070;-68
2021/05/09 08:19:01;;;;;;;14.00;2.95;;;17.60;99.90;;;;;;4952504;28;20527;-68
2021/05/09 08:21:27;;;;;;;8.48;3.22;;;17.70;99.90;;;;;;4960159;28;20032;-68
2021/05/09 08:23:53;;;;;;;11.65;3.38;;;17.70;99.90;;;;;;4951690;28;20111;-68
2021/05/09 08:26:18;;;;;;;11.15;3.10;;;17.70;99.90;;;;;;4961349;28;20380;-68
2021/05/09 08:28:44;;;;;;;17.52;3.78;;;17.70;99.90;;;;;;4950980;28;20083;-68
2021/05/09 08:31:11;;;;;;;12.60;3.40;;;17.70;99.90;;;;;;4966745;28;20037;-68
2021/05/09 08:33:37;;;;;;;15.57;3.67;;;17.60;99.90;;;;;;4958916;28;20026;-68
2021/05/09 08:36:04;;;;;;;12.30;3.25;;;17.50;99.90;;;;;;4960865;28;20395;-68
2021/05/09 08:38:30;;;;;;;11.85;3.10;;;17.60;99.90;;;;;;4951298;28;20023;-68
2021/05/09 08:40:57;;;;;;;14.43;3.30;;;17.50;99.90;;;;;;4961456;28;20372;-68
2021/05/09 08:43:23;;;;;;;10.80;3.50;;;17.50;99.90;;;;;;4951217;28;20059;-68
2021/05/09 08:45:49;;;;;;;10.45;3.05;;;17.40;99.90;;;;;;4961849;28;20542;-67
2021/05/09 08:48:19;;;;;;;15.65;3.35;;;17.40;99.90;;;;;;4951590;28;20037;-68
2021/05/09 08:50:45;;;;;;;13.43;3.53;;;17.50;99.90;;;;;;4961158;28;20030;-68
2021/05/09 08:53:14;;;;;;;11.38;3.40;;;17.40;99.90;;;;;;4951430;28;20035;-68
2021/05/09 08:55:40;;;;;;;13.07;3.10;;;17.40;99.90;;;;;;4961436;28;20027;-68
2021/05/09 08:58:08;;;;;;;9.73;2.88;;;17.40;99.90;;;;;;4955653;28;20043;-68
2021/05/09 09:00:34;;;;;;;8.52;3.30;;;17.30;99.90;;;;;;4963402;28;20027;-67
2021/05/09 09:03:04;;;;;;;10.75;3.13;;;17.40;99.90;;;;;;4956718;28;20038;-67
2021/05/09 09:05:44;;;;;;;11.13;3.75;;;17.40;99.90;;;;;;4961555;28;20026;-67
2021/05/09 09:08:12;;;;;;;10.30;3.28;;;17.40;99.90;;;;;;4954858;28;20045;-67
2021/05/09 09:10:48;;;;;;;8.27;2.67;;;17.30;99.90;;;;;;4963282;28;20053;-67
2021/05/09 09:13:31;;;;;;;11.30;3.30;;;17.30;99.90;;;;;;4954430;28;20019;-67
2021/05/09 09:15:57;;;;;;;12.65;3.30;;;17.40;99.90;;;;;;4964876;28;20042;-68
2021/05/09 09:18:44;;;;;;;12.65;2.72;;;17.30;99.90;;;;;;4954171;28;20027;-68
2021/05/09 09:21:18;;;;;;;;;;;17.30;99.90;;;;;;4964823;28;20031;-68
2021/05/09 09:23:45;;;;;;;11.90;3.42;;;17.30;99.90;;;;;;4954285;28;19907;-68
2021/05/09 09:26:28;;;;;;;10.77;2.97;;;17.30;99.90;;;;;;4964332;28;20127;-67
2021/05/09 09:28:53;;;;;;;9.38;2.83;;;17.40;99.90;;;;;;4971905;28;20023;-67
2021/05/09 09:31:39;;;;;;;10.68;3.40;;;17.30;99.90;;;;;;4963799;28;20047;-68
2021/05/09 09:34:04;;;;;;;8.70;2.75;;;17.40;99.90;;;;;;4955058;28;20027;-68
2021/05/09 09:36:30;;;;;;;10.32;2.50;;;17.40;99.90;;;;;;4962373;28;20540;-68
2021/05/09 09:38:57;;;;;;;14.13;3.53;;;17.30;99.90;;;;;;4965344;28;20558;-67
2021/05/09 09:41:23;;;;;;;13.80;3.42;;;17.40;99.90;;;;;;4963579;28;20106;-67
2021/05/09 09:44:01;;;;;;;10.93;2.88;;;17.40;99.90;;;;;;4953789;28;20019;-68
2021/05/09 09:47:00;;;;;;;8.20;3.35;;;17.30;99.90;;;;;;4963632;28;20023;-68
2021/05/09 09:49:31;;;;;;;17.52;3.47;;;17.40;99.90;;;;;;4955553;28;20538;-67
2021/05/09 09:52:04;;;;;;;12.20;3.10;;;17.40;99.90;;;;;;4961167;28;20059;-67
2021/05/09 09:54:33;;;;;;;8.45;2.90;;;17.40;99.90;;;;;;4955796;28;20023;-67
2021/05/09 09:57:00;;;;;;;9.60;2.75;;;17.40;99.90;;;;;;4961736;28;20031;-67
2021/05/09 09:59:26;;;;;;;9.20;2.75;;;17.40;99.90;;;;;;4955886;28;20035;-67
2021/05/09 10:01:52;;;;;;;10.80;2.95;;;17.50;99.90;;;;;;4961896;28;20094;-67
2021/05/09 10:04:17;;;;;;;6.80;2.47;;;17.50;99.90;;;;;;4955790;28;20492;-68
2021/05/09 10:06:43;;;;;;;11.73;2.80;;;17.50;99.90;;;;;;4961235;28;20027;-68
2021/05/09 10:09:09;;;;;;;15.43;3.38;;;17.50;99.90;;;;;;4954686;28;20604;-68
2021/05/09 10:11:36;;;;;;;8.57;2.83;;;17.60;99.90;;;;;;4961486;28;20420;-67
2021/05/09 10:14:02;;;;;;;8.07;2.90;;;17.70;99.90;;;;;;4953794;28;20062;-67
2021/05/09 10:16:39;;;;;;;15.55;2.72;;;17.80;99.90;;;;;;4963063;28;20035;-67
2021/05/09 10:19:10;;;;;;;17.90;3.88;;;18.00;99.90;;;;;;4962164;28;20624;-67
2021/05/09 10:21:37;;;;;;;9.48;3.00;;;18.30;99.90;;;;;;4966832;28;20038;-68
2021/05/09 10:24:22;;;;;;;9.48;3.28;;;18.40;99.90;;;;;;4961899;28;20027;-68
2021/05/09 10:26:51;;;;;;;13.10;3.30;;;18.40;99.90;;;;;;4965631;28;20025;-67
2021/05/09 10:32:06;;;;;;;8.93;2.65;;;18.30;99.90;;;;;;4970965;28;20034;-68
2021/05/09 10:34:53;;;;;;;5.15;2.33;;;18.30;99.90;;;;;;4967289;28;20042;-68
2021/05/09 10:40:28;;;;;;;14.35;3.30;;;18.20;99.90;;;;;;4966043;28;20416;-67
2021/05/09 10:43:07;;;;;;;7.85;2.65;;;18.10;99.90;;;;;;4955680;28;20023;-67
2021/05/09 10:45:36;;;;;;;11.40;2.33;;;18.30;99.90;;;;;;4961664;28;20133;-68
2021/05/09 10:48:21;;;;;;;16.80;3.00;;;18.30;99.90;;;;;;4966613;28;20041;-68
2021/05/09 10:51:06;;;;;;;12.75;2.78;;;18.40;99.90;;;;;;4963906;28;20031;-68
2021/05/09 10:53:40;;;;;;;15.43;3.10;;;18.50;99.90;;;;;;4961805;28;20046;-68
2021/05/09 10:56:15;;;;;;;11.93;3.13;;;18.60;99.90;;;;;;4965043;28;20074;-68
2021/05/09 10:58:50;;;;;;;18.02;5.03;;;18.90;99.90;;;;;;4962465;28;20530;-67
2021/05/09 11:01:20;;;;;;;12.13;3.15;;;18.90;99.90;;;;;;4963937;28;20407;-68
2021/05/09 11:03:52;;;;;;;13.27;3.60;;;19.10;99.90;;;;;;4962039;28;20038;-67
2021/05/09 11:06:26;;;;;;;15.02;2.63;;;19.20;99.90;;;;;;4963046;28;20532;-68
2021/05/09 11:08:57;;;;;;;10.18;3.30;;;19.30;99.90;;;;;;4967455;28;20114;-68
2021/05/09 11:11:45;;;;;;;14.73;3.10;;;19.80;99.90;;;;;;4962436;28;20052;-68
2021/05/09 11:14:11;;;;;;;14.55;3.33;;;19.90;99.90;;;;;;4953172;28;20052;-68
2021/05/09 11:16:55;;;;;;;10.77;2.90;;;19.90;99.90;;;;;;4960551;28;20120;-68
2021/05/09 11:19:24;;;;;;;11.80;3.08;;;20.10;99.90;;;;;;4953143;28;20046;-68
2021/05/09 11:21:52;;;;;;;11.05;2.78;;;19.90;99.90;;;;;;4962136;28;20094;-67
2021/05/09 11:24:32;;;;;;;11.95;3.38;;;19.60;99.90;;;;;;4966988;28;20027;-68
2021/05/09 11:27:04;;;;;;;17.45;3.70;;;19.50;99.90;;;;;;4962698;28;20023;-68
2021/05/09 11:29:30;;;;;;;12.68;3.03;;;19.50;99.90;;;;;;4965954;28;20076;-68
2021/05/09 11:31:56;;;;;;;16.23;4.47;;;19.40;99.90;;;;;;4960062;28;20019;-67
2021/05/09 11:34:24;;;;;;;13.30;3.92;;;19.30;99.90;;;;;;4954407;28;20034;-67
2021/05/09 11:36:54;;;;;;;11.32;3.08;;;19.10;99.90;;;;;;4960108;28;20023;-65
2021/05/09 11:39:21;;;;;;;11.70;3.50;;;19.10;99.90;;;;;;4954116;28;20034;-67
2021/05/09 11:41:58;;;;;;;12.10;2.80;;;19.10;99.90;;;;;;4959840;28;20051;-68
2021/05/09 11:44:39;;;;;;;9.52;2.78;;;19.00;99.90;;;;;;4954191;28;20037;-67
2021/05/09 11:47:07;;;;;;;9.98;2.88;;;18.90;99.90;;;;;;4960086;28;20106;-67
2021/05/09 11:49:34;;;;;;;12.13;3.30;;;18.90;99.90;;;;;;4953963;28;20026;-67
2021/05/09 11:52:07;;;;;;;10.43;3.75;;;18.70;99.90;;;;;;4959148;28;20042;-68
2021/05/09 11:54:36;;;;;;;17.63;4.20;;;18.70;99.90;;;;;;4954065;28;20030;-67
2021/05/09 11:57:07;;;;;;;14.65;3.80;;;18.60;99.90;;;;;;4959967;28;20045;-68
2021/05/09 11:59:53;;;;;;;17.38;3.35;;;18.60;99.90;;;;;;4954408;28;20126;-68
2021/05/09 12:02:23;;;;;;;21.38;4.28;;;18.60;99.90;;;;;;4963243;28;20025;-68
2021/05/09 12:04:51;;;;;;;14.20;3.85;;;18.70;99.90;;;;;;4964975;28;20114;-68
2021/05/09 12:07:22;;;;;;;14.52;4.40;;;18.50;99.90;;;;;;4959303;28;20027;-68
2021/05/09 12:10:14;;;;;;;21.92;4.07;;;18.50;99.90;;;;;;4954000;28;20031;-68
2021/05/09 12:12:42;;;;;;;15.73;4.20;;;18.40;99.90;;;;;;4966126;28;20560;-67
2021/05/09 12:15:18;;;;;;;17.55;4.53;;;18.40;99.90;;;;;;4964739;28;20500;-67
2021/05/09 12:17:47;;;;;;;16.52;4.35;;;18.20;99.90;;;;;;4955968;28;20035;-68
2021/05/09 12:20:28;;;;;;;17.17;3.80;;;18.00;99.90;;;;;;4956977;28;20536;-67
2021/05/09 12:22:55;;;;;;;19.67;4.25;;;18.10;99.90;;;;;;4954829;28;20126;-67
2021/05/09 12:25:48;;;;;;;15.95;3.88;;;18.00;99.90;;;;;;4957846;28;20046;-68
2021/05/09 12:28:19;;;;;;;19.38;4.10;;;18.00;99.90;;;;;;4951005;29;20126;-67
2021/05/09 12:30:47;;;;;;;20.58;4.50;;;17.70;99.90;;;;;;4962119;28;20031;-67
2021/05/09 12:33:24;;;;;;;19.35;4.38;;;17.80;99.90;;;;;;4956093;28;20114;-67
2021/05/09 12:35:50;;;;;;;19.40;3.65;;;17.80;99.90;;;;;;4963913;28;20454;-67
2021/05/09 12:38:27;;;;;;;16.48;4.78;;;17.90;99.90;;;;;;4983735;28;20474;-70
2021/05/09 12:41:06;;;;;;;24.90;4.22;;;17.90;99.90;;;;;;4965298;28;20038;-71
2021/05/09 12:43:52;;;;;;;14.57;3.40;;;18.00;99.90;;;;;;4962130;28;20480;-71
2021/05/09 12:46:38;;;;;;;23.33;4.75;;;17.90;99.90;;;;;;4965621;28;20094;-70
2021/05/09 12:49:09;;;;;;;15.90;3.90;;;17.90;99.90;;;;;;4958409;28;20019;-71